Terminal Aerodrome Forecast
Issued by NWS Grand Forks, ND

Home | Current Version | Previous Version | Graphics & Text | Print | Product List | Glossary On
Versions: 1 2 3 4 5 6 7 8 9 10 11 12 13 14 15 16 17 18 19 20 21 22 23 24 25 26 27 28 29
000
FTUS43 KFGF 142335
TAFGFK
TAF
KGFK 142335Z 1500/1524 VRB06KT P6SM OVC025
      TEMPO 1500/1502 -SN
     FM150500 VRB04KT P6SM OVC015
     FM151200 VRB03KT 4SM -SN OVC015
     FM151900 15007KT 1SM -SN OVC010=

USA.gov is the U.S. government's official web portal to all federal, state and local government web resources and services.